• Join FlightAware (Why Join?)
  • Login
  • US Flag 
09:28PM EDT


 

Airport Tracker/Info


-or-


 

Live Flight TrackerFlight Track Log ✈ SWA8500 ✈ 18-May-2013 ✈ KBWI - KRDU

Flight Track Log - Related Links

Times and Time Zones

All times are in EDT time to prevent confusion due to time zone crossing. See the SWA8500 flight status page for this flight to view local times or setup timezone preferences in your user account.

Time Position Orientation Groundspeed Altitude Reporting Facility
EDT Latitude Longitude Course Direction KTS MPH feet Rate Location/Type
12:42PM 39.1500 -76.6500 142° Southeast 155 178 1,800  Level Potomac TRACON
12:43PM 39.1000 -76.6000 142° Southeast 207 238 4,600 2,520 Climbing Potomac TRACON
12:44PM 39.0500 -76.5500 142° Southeast 255 293 6,900 2,580 Climbing Potomac TRACON
12:45PM 38.9833 -76.5500 180° South 283 326 9,900 2,700 Climbing Potomac TRACON
12:46PM 38.9000 -76.5833 197° South 297 342 12,400 2,400 Climbing Potomac TRACON
12:47PM 38.8167 -76.6000 189° South 338 389 14,800 2,400 Climbing Potomac TRACON
12:48PM 38.7333 -76.6333 197° South 341 392 17,100 2,040 Climbing Potomac TRACON
12:49PM 38.6333 -76.6500 187° South 365 420 18,800 1,380 Climbing Potomac TRACON
12:49PM 38.5917 -76.6622 193° South 376 433 19,000 720 Climbing Washington Center
12:50PM 38.4850 -76.6897 191° South 387 445 19,800 1,440 Climbing Washington Center
12:51PM 38.3806 -76.7253 195° South 392 451 22,000 1,020 Climbing Washington Center
12:52PM 38.2822 -76.7608 196° South 397 457 21,900 -60 Descending Washington Center
12:53PM 38.1692 -76.8039 197° South 411 473 21,900  Level Washington Center
12:54PM 38.0542 -76.8469 196° South 424 488 21,900  Level Washington Center
12:55PM 37.9408 -76.8897 197° South 429 494 21,900  Level Washington Center
12:56PM 37.8258 -76.9325 196° South 429 494 21,900  Level Washington Center
12:57PM 37.7000 -76.9803 197° South 429 494 21,900  Level Washington Center
12:58PM 37.5892 -77.0203 196° South 424 488 21,900  Level Washington Center
12:59PM 37.4717 -77.0625 196° South 424 488 21,900  Level Washington Center
01:00PM 37.3586 -77.1072 197° South 430 495 21,900  Level Washington Center
01:01PM 37.2514 -77.1678 204° Southwest 430 495 21,900  Level Washington Center
01:02PM 37.1589 -77.2336 210° Southwest 423 487 21,900  Level Washington Center
01:03PM 37.0597 -77.3044 210° Southwest 423 487 21,900  Level Washington Center
01:04PM 36.9564 -77.3828 211° Southwest 428 493 21,900  Level Washington Center
01:05PM 36.8550 -77.4583 211° Southwest 428 493 21,900  Level Washington Center
01:06PM 36.7558 -77.5311 210° Southwest 428 493 21,900  Level Washington Center
01:07PM 36.6544 -77.6089 212° Southwest 433 498 21,900  Level Washington Center
01:08PM 36.5531 -77.6836 211° Southwest 433 498 21,900 -420 Level Washington Center
01:09PM 36.4678 -77.7794 222° Southwest 433 498 21,100 -2,040 Descending Washington Center
01:10PM 36.3931 -77.8781 227° Southwest 415 478 17,800 -3,120 Descending Washington Center
01:11PM 36.3203 -77.9739 227° Southwest 404 465 14,900 -2,940 Descending Washington Center
01:12PM 36.2775 -78.0267 225° Southwest 371 427 13,500 -2,460 Descending Washington Center
01:12PM 36.2494 -78.0644 227° Southwest 383 441 12,400 -2,460 Descending Washington Center
01:13PM 36.2172 -78.1072 227° Southwest 341 392 11,300 -2,100 Descending Washington Center
01:13PM 36.1831 -78.1475 224° Southwest 353 406 10,300 -1,440 Descending Washington Center
01:14PM 36.1514 -78.1617 200° South 314 361 10,000 -960 Descending Washington Center
01:14PM 36.1008 -78.1908 205° Southwest 309 356 9,400 -1,200 Descending Washington Center
01:15PM 36.0647 -78.2156 209° Southwest 259 298 8,600 -1,380 Descending Washington Center
01:15PM 36.0458 -78.2278 208° Southwest 274 315 8,000 -1,440 Descending Washington Center
01:16PM 36.0119 -78.2472 205° Southwest 254 292 7,300 -1,680 Descending Washington Center
01:16PM 35.9819 -78.2847 225° Southwest 262 302 6,300 -1,800 Descending Washington Center
01:17PM 35.9456 -78.3167 215° Southwest 257 296 5,200 -1,740 Descending Washington Center
01:17PM 35.9306 -78.3367 227° Southwest 262 302 4,600 -1,680 Descending Washington Center
01:18PM 35.9047 -78.3742 230° Southwest 263 303 3,900 -780 Descending Washington Center
01:18PM 35.8892 -78.4147 245° Southwest 262 302 3,900 60 Level Washington Center
01:19PM 35.8761 -78.4375 235° Southwest 213 245 4,000 60 Climbing Washington Center
01:19PM 35.8878 -78.4711 293° West 215 247 4,000  Level Washington Center
01:20PM 35.8997 -78.4997 297° West 206 237 4,000 -600 Level Washington Center
01:20PM 35.9178 -78.5286 308° West 195 224 3,400 -1,020 Descending Washington Center
01:21PM 35.9314 -78.5600 298° West 205 236 3,000 -900 Descending Washington Center
01:21PM 35.9456 -78.5861 304° West 195 224 2,500 -900 Descending Washington Center
01:22PM 35.9575 -78.6097 302° West 186 214 2,100 -360 Descending Washington Center
01:23PM 35.9597 -78.6764 272° West 177 204 2,000 -180 Descending Washington Center
01:24PM 35.9294 -78.7214 230° Southwest 169 194 1,800 -420 Descending Washington Center
01:25PM 35.9036 -78.7514 223° Southwest 128 147 1,200 -660 Descending Washington Center
01:27PM 35.8776 -78.7875 North  Level Estimated
01:34PM 35.8776 -78.7875 349° North  Level Estimated